sensor_id;sensor_type;location;lat;lon;timestamp;P1;durP1;ratioP1;P2;durP2;ratioP2
6561;SDS011;3314;50.890;4.722;2023-04-09T00:00:48;23.5;;;11.7;;
6561;SDS011;3314;50.890;4.722;2023-04-09T00:02:48;24.9;;;11.5;;
6561;SDS011;3314;50.890;4.722;2023-04-09T00:04:51;24.5;;;12.0;;
6561;SDS011;3314;50.890;4.722;2023-04-09T00:06:52;26.1;;;11.6;;
6561;SDS011;3314;50.890;4.722;2023-04-09T00:08:54;24.9;;;11.9;;
6561;SDS011;3314;50.890;4.722;2023-04-09T00:10:41;28.8;;;13.1;;
6561;SDS011;3314;50.890;4.722;2023-04-09T00:12:44;27.1;;;11.6;;
6561;SDS011;3314;50.890;4.722;2023-04-09T00:14:43;27.5;;;12.2;;
6561;SDS011;3314;50.890;4.722;2023-04-09T00:16:43;24.7;;;12.2;;
6561;SDS011;3314;50.890;4.722;2023-04-09T00:18:43;25.6;;;12.2;;
6561;SDS011;3314;50.890;4.722;2023-04-09T00:20:42;33.6;;;12.3;;
6561;SDS011;3314;50.890;4.722;2023-04-09T00:22:47;27.4;;;11.7;;
6561;SDS011;3314;50.890;4.722;2023-04-09T00:24:48;24.2;;;11.8;;
6561;SDS011;3314;50.890;4.722;2023-04-09T00:26:49;25.6;;;12.6;;
6561;SDS011;3314;50.890;4.722;2023-04-09T00:28:38;27.5;;;12.3;;
6561;SDS011;3314;50.890;4.722;2023-04-09T00:30:38;27.4;;;11.5;;
6561;SDS011;3314;50.890;4.722;2023-04-09T00:32:38;28.2;;;12.3;;
6561;SDS011;3314;50.890;4.722;2023-04-09T00:34:38;26.7;;;11.3;;
6561;SDS011;3314;50.890;4.722;2023-04-09T00:36:38;26.5;;;12.8;;
6561;SDS011;3314;50.890;4.722;2023-04-09T00:38:41;30.1;;;13.0;;
6561;SDS011;3314;50.890;4.722;2023-04-09T00:40:47;31.2;;;12.4;;
6561;SDS011;3314;50.890;4.722;2023-04-09T00:42:36;25.6;;;11.6;;
6561;SDS011;3314;50.890;4.722;2023-04-09T00:44:39;27.3;;;11.9;;
6561;SDS011;3314;50.890;4.722;2023-04-09T00:46:39;27.4;;;11.9;;
6561;SDS011;3314;50.890;4.722;2023-04-09T00:48:39;28.8;;;12.2;;
6561;SDS011;3314;50.890;4.722;2023-04-09T00:50:39;27.8;;;12.9;;
6561;SDS011;3314;50.890;4.722;2023-04-09T00:52:38;26.5;;;12.3;;
6561;SDS011;3314;50.890;4.722;2023-04-09T00:54:43;28.0;;;12.8;;
6561;SDS011;3314;50.890;4.722;2023-04-09T00:56:43;25.8;;;12.8;;
6561;SDS011;3314;50.890;4.722;2023-04-09T00:58:43;24.6;;;11.4;;
6561;SDS011;3314;50.890;4.722;2023-04-09T01:00:38;30.8;;;12.5;;
6561;SDS011;3314;50.890;4.722;2023-04-09T01:02:38;27.7;;;12.8;;
6561;SDS011;3314;50.890;4.722;2023-04-09T01:04:39;25.7;;;12.2;;
6561;SDS011;3314;50.890;4.722;2023-04-09T01:06:46;26.3;;;12.1;;
6561;SDS011;3314;50.890;4.722;2023-04-09T01:08:37;25.6;;;10.9;;
6561;SDS011;3314;50.890;4.722;2023-04-09T01:10:41;25.2;;;11.3;;
6561;SDS011;3314;50.890;4.722;2023-04-09T01:12:31;24.3;;;11.5;;
6561;SDS011;3314;50.890;4.722;2023-04-09T01:14:36;26.4;;;12.0;;
6561;SDS011;3314;50.890;4.722;2023-04-09T01:16:37;24.3;;;11.8;;
6561;SDS011;3314;50.890;4.722;2023-04-09T01:18:30;24.1;;;10.4;;
6561;SDS011;3314;50.890;4.722;2023-04-09T01:20:39;25.7;;;11.7;;
6561;SDS011;3314;50.890;4.722;2023-04-09T01:22:39;27.5;;;11.6;;
6561;SDS011;3314;50.890;4.722;2023-04-09T01:24:33;24.4;;;11.4;;
6561;SDS011;3314;50.890;4.722;2023-04-09T01:26:43;26.1;;;10.7;;
6561;SDS011;3314;50.890;4.722;2023-04-09T01:28:32;28.0;;;12.2;;
6561;SDS011;3314;50.890;4.722;2023-04-09T01:30:34;23.6;;;11.6;;
6561;SDS011;3314;50.890;4.722;2023-04-09T01:32:37;28.0;;;11.9;;
6561;SDS011;3314;50.890;4.722;2023-04-09T01:34:27;27.3;;;11.2;;
6561;SDS011;3314;50.890;4.722;2023-04-09T01:36:27;26.6;;;11.7;;
6561;SDS011;3314;50.890;4.722;2023-04-09T01:38:29;24.7;;;12.1;;
6561;SDS011;3314;50.890;4.722;2023-04-09T01:40:29;25.8;;;10.9;;
6561;SDS011;3314;50.890;4.722;2023-04-09T01:42:28;21.9;;;10.3;;
6561;SDS011;3314;50.890;4.722;2023-04-09T01:44:28;22.2;;;10.3;;
6561;SDS011;3314;50.890;4.722;2023-04-09T01:46:28;24.6;;;11.3;;
6561;SDS011;3314;50.890;4.722;2023-04-09T01:48:28;22.3;;;9.6;;
6561;SDS011;3314;50.890;4.722;2023-04-09T01:50:28;22.0;;;10.3;;
6561;SDS011;3314;50.890;4.722;2023-04-09T01:52:28;26.9;;;11.6;;
6561;SDS011;3314;50.890;4.722;2023-04-09T01:54:28;26.0;;;10.7;;
6561;SDS011;3314;50.890;4.722;2023-04-09T01:56:38;25.1;;;11.0;;
6561;SDS011;3314;50.890;4.722;2023-04-09T01:58:26;26.2;;;11.3;;
6561;SDS011;3314;50.890;4.722;2023-04-09T02:00:28;26.4;;;11.9;;
6561;SDS011;3314;50.890;4.722;2023-04-09T02:02:32;27.3;;;12.1;;
6561;SDS011;3314;50.890;4.722;2023-04-09T02:04:22;26.2;;;12.1;;
6561;SDS011;3314;50.890;4.722;2023-04-09T02:06:24;29.8;;;10.5;;
6561;SDS011;3314;50.890;4.722;2023-04-09T02:08:24;23.6;;;10.7;;
6561;SDS011;3314;50.890;4.722;2023-04-09T02:10:26;21.3;;;10.2;;
6561;SDS011;3314;50.890;4.722;2023-04-09T02:12:25;26.6;;;11.2;;
6561;SDS011;3314;50.890;4.722;2023-04-09T02:14:26;24.4;;;11.5;;
6561;SDS011;3314;50.890;4.722;2023-04-09T02:16:26;22.5;;;10.8;;
6561;SDS011;3314;50.890;4.722;2023-04-09T02:18:28;24.5;;;11.1;;
6561;SDS011;3314;50.890;4.722;2023-04-09T02:20:18;24.5;;;10.4;;
6561;SDS011;3314;50.890;4.722;2023-04-09T02:22:18;28.2;;;12.8;;
6561;SDS011;3314;50.890;4.722;2023-04-09T02:24:18;22.1;;;11.2;;
6561;SDS011;3314;50.890;4.722;2023-04-09T02:26:17;28.4;;;11.5;;
6561;SDS011;3314;50.890;4.722;2023-04-09T02:28:17;27.6;;;12.9;;
6561;SDS011;3314;50.890;4.722;2023-04-09T02:30:17;27.8;;;13.3;;
6561;SDS011;3314;50.890;4.722;2023-04-09T02:32:16;31.0;;;12.9;;
6561;SDS011;3314;50.890;4.722;2023-04-09T02:34:16;31.4;;;12.8;;
6561;SDS011;3314;50.890;4.722;2023-04-09T02:36:16;32.7;;;14.2;;
6561;SDS011;3314;50.890;4.722;2023-04-09T02:38:15;30.6;;;13.2;;
6561;SDS011;3314;50.890;4.722;2023-04-09T02:40:15;28.2;;;12.0;;
6561;SDS011;3314;50.890;4.722;2023-04-09T02:42:14;29.4;;;13.4;;
6561;SDS011;3314;50.890;4.722;2023-04-09T02:44:14;25.8;;;12.0;;
6561;SDS011;3314;50.890;4.722;2023-04-09T02:46:14;27.3;;;12.5;;
6561;SDS011;3314;50.890;4.722;2023-04-09T02:48:14;28.0;;;13.1;;
6561;SDS011;3314;50.890;4.722;2023-04-09T02:50:13;25.7;;;10.8;;
6561;SDS011;3314;50.890;4.722;2023-04-09T02:52:13;27.7;;;12.8;;
6561;SDS011;3314;50.890;4.722;2023-04-09T02:54:13;26.0;;;11.1;;
6561;SDS011;3314;50.890;4.722;2023-04-09T02:56:12;26.2;;;11.7;;
6561;SDS011;3314;50.890;4.722;2023-04-09T02:58:12;27.9;;;12.3;;
6561;SDS011;3314;50.890;4.722;2023-04-09T03:00:12;24.9;;;11.0;;
6561;SDS011;3314;50.890;4.722;2023-04-09T03:02:12;28.3;;;12.7;;
6561;SDS011;3314;50.890;4.722;2023-04-09T03:04:12;33.2;;;12.1;;
6561;SDS011;3314;50.890;4.722;2023-04-09T03:06:11;28.6;;;12.0;;
6561;SDS011;3314;50.890;4.722;2023-04-09T03:08:11;31.9;;;13.2;;
6561;SDS011;3314;50.890;4.722;2023-04-09T03:10:11;24.8;;;12.2;;
6561;SDS011;3314;50.890;4.722;2023-04-09T03:12:10;24.5;;;11.8;;
6561;SDS011;3314;50.890;4.722;2023-04-09T03:14:10;29.9;;;12.2;;
6561;SDS011;3314;50.890;4.722;2023-04-09T03:16:10;25.1;;;11.0;;
6561;SDS011;3314;50.890;4.722;2023-04-09T03:18:09;27.3;;;12.2;;
6561;SDS011;3314;50.890;4.722;2023-04-09T03:20:09;27.9;;;12.7;;
6561;SDS011;3314;50.890;4.722;2023-04-09T03:22:09;28.9;;;10.8;;
6561;SDS011;3314;50.890;4.722;2023-04-09T03:24:08;25.2;;;11.7;;
6561;SDS011;3314;50.890;4.722;2023-04-09T03:26:08;23.8;;;10.9;;
6561;SDS011;3314;50.890;4.722;2023-04-09T03:28:08;36.6;;;14.3;;
6561;SDS011;3314;50.890;4.722;2023-04-09T03:30:08;27.9;;;13.1;;
6561;SDS011;3314;50.890;4.722;2023-04-09T03:32:08;28.3;;;13.0;;
6561;SDS011;3314;50.890;4.722;2023-04-09T03:34:07;34.6;;;14.2;;
6561;SDS011;3314;50.890;4.722;2023-04-09T03:36:07;34.1;;;14.9;;
6561;SDS011;3314;50.890;4.722;2023-04-09T03:38:06;34.9;;;15.9;;
6561;SDS011;3314;50.890;4.722;2023-04-09T03:40:07;33.8;;;13.1;;
6561;SDS011;3314;50.890;4.722;2023-04-09T03:42:06;31.8;;;14.8;;
6561;SDS011;3314;50.890;4.722;2023-04-09T03:44:06;33.9;;;14.1;;
6561;SDS011;3314;50.890;4.722;2023-04-09T03:46:10;36.0;;;13.8;;
6561;SDS011;3314;50.890;4.722;2023-04-09T03:48:10;29.9;;;13.7;;
6561;SDS011;3314;50.890;4.722;2023-04-09T03:50:09;32.0;;;14.0;;
6561;SDS011;3314;50.890;4.722;2023-04-09T03:52:09;32.7;;;14.7;;
6561;SDS011;3314;50.890;4.722;2023-04-09T03:54:09;35.1;;;14.1;;
6561;SDS011;3314;50.890;4.722;2023-04-09T03:56:09;31.1;;;13.5;;
6561;SDS011;3314;50.890;4.722;2023-04-09T03:58:09;29.2;;;13.2;;
6561;SDS011;3314;50.890;4.722;2023-04-09T04:00:09;30.4;;;13.8;;
6561;SDS011;3314;50.890;4.722;2023-04-09T04:01:59;36.5;;;14.7;;
6561;SDS011;3314;50.890;4.722;2023-04-09T04:03:58;34.7;;;15.1;;
6561;SDS011;3314;50.890;4.722;2023-04-09T04:05:59;31.6;;;13.4;;
6561;SDS011;3314;50.890;4.722;2023-04-09T04:07:59;35.4;;;15.6;;
6561;SDS011;3314;50.890;4.722;2023-04-09T04:09:58;32.4;;;13.8;;
6561;SDS011;3314;50.890;4.722;2023-04-09T04:11:59;30.3;;;14.0;;
6561;SDS011;3314;50.890;4.722;2023-04-09T04:13:59;40.5;;;15.5;;
6561;SDS011;3314;50.890;4.722;2023-04-09T04:15:59;34.7;;;14.2;;
6561;SDS011;3314;50.890;4.722;2023-04-09T04:17:58;36.5;;;14.2;;
6561;SDS011;3314;50.890;4.722;2023-04-09T04:19:58;30.4;;;12.9;;
6561;SDS011;3314;50.890;4.722;2023-04-09T04:21:58;33.6;;;13.7;;
6561;SDS011;3314;50.890;4.722;2023-04-09T04:23:57;27.6;;;13.4;;
6561;SDS011;3314;50.890;4.722;2023-04-09T04:25:57;31.2;;;13.8;;
6561;SDS011;3314;50.890;4.722;2023-04-09T04:27:57;33.1;;;14.2;;
6561;SDS011;3314;50.890;4.722;2023-04-09T04:29:58;36.8;;;14.5;;
6561;SDS011;3314;50.890;4.722;2023-04-09T04:31:57;32.9;;;13.7;;
6561;SDS011;3314;50.890;4.722;2023-04-09T04:33:57;35.3;;;14.9;;
6561;SDS011;3314;50.890;4.722;2023-04-09T04:36:03;39.4;;;17.2;;
6561;SDS011;3314;50.890;4.722;2023-04-09T04:37:52;39.8;;;16.3;;
6561;SDS011;3314;50.890;4.722;2023-04-09T04:39:51;41.1;;;15.6;;
6561;SDS011;3314;50.890;4.722;2023-04-09T04:41:51;35.5;;;15.8;;
6561;SDS011;3314;50.890;4.722;2023-04-09T04:43:50;35.3;;;15.0;;
6561;SDS011;3314;50.890;4.722;2023-04-09T04:45:50;35.2;;;15.0;;
6561;SDS011;3314;50.890;4.722;2023-04-09T04:47:50;36.1;;;15.4;;
6561;SDS011;3314;50.890;4.722;2023-04-09T04:49:50;37.7;;;16.0;;
6561;SDS011;3314;50.890;4.722;2023-04-09T04:51:49;38.3;;;15.4;;
6561;SDS011;3314;50.890;4.722;2023-04-09T04:53:49;37.8;;;16.5;;
6561;SDS011;3314;50.890;4.722;2023-04-09T04:55:48;36.1;;;15.9;;
6561;SDS011;3314;50.890;4.722;2023-04-09T04:57:49;41.7;;;16.6;;
6561;SDS011;3314;50.890;4.722;2023-04-09T04:59:49;38.1;;;15.9;;
6561;SDS011;3314;50.890;4.722;2023-04-09T05:01:48;35.0;;;15.6;;
6561;SDS011;3314;50.890;4.722;2023-04-09T05:03:48;37.9;;;16.3;;
6561;SDS011;3314;50.890;4.722;2023-04-09T05:05:48;39.2;;;15.8;;
6561;SDS011;3314;50.890;4.722;2023-04-09T05:07:47;38.4;;;16.1;;
6561;SDS011;3314;50.890;4.722;2023-04-09T05:09:47;38.3;;;16.0;;
6561;SDS011;3314;50.890;4.722;2023-04-09T05:11:46;37.9;;;16.0;;
6561;SDS011;3314;50.890;4.722;2023-04-09T05:13:46;37.6;;;14.9;;
6561;SDS011;3314;50.890;4.722;2023-04-09T05:15:46;38.9;;;15.5;;
6561;SDS011;3314;50.890;4.722;2023-04-09T05:17:46;38.0;;;16.4;;
6561;SDS011;3314;50.890;4.722;2023-04-09T05:19:50;36.2;;;15.4;;
6561;SDS011;3314;50.890;4.722;2023-04-09T05:21:49;42.7;;;17.5;;
6561;SDS011;3314;50.890;4.722;2023-04-09T05:23:49;40.3;;;15.9;;
6561;SDS011;3314;50.890;4.722;2023-04-09T05:25:49;42.8;;;17.3;;
6561;SDS011;3314;50.890;4.722;2023-04-09T05:27:50;42.6;;;16.7;;
6561;SDS011;3314;50.890;4.722;2023-04-09T05:29:49;42.1;;;17.0;;
6561;SDS011;3314;50.890;4.722;2023-04-09T05:31:49;41.1;;;17.3;;
6561;SDS011;3314;50.890;4.722;2023-04-09T05:33:49;37.0;;;15.3;;
6561;SDS011;3314;50.890;4.722;2023-04-09T05:35:48;35.8;;;16.4;;
6561;SDS011;3314;50.890;4.722;2023-04-09T05:37:48;37.3;;;15.9;;
6561;SDS011;3314;50.890;4.722;2023-04-09T05:39:48;35.1;;;16.1;;
6561;SDS011;3314;50.890;4.722;2023-04-09T05:41:48;42.5;;;15.3;;
6561;SDS011;3314;50.890;4.722;2023-04-09T05:43:47;38.2;;;15.8;;
6561;SDS011;3314;50.890;4.722;2023-04-09T05:45:47;35.5;;;15.7;;
6561;SDS011;3314;50.890;4.722;2023-04-09T05:47:47;37.6;;;16.3;;
6561;SDS011;3314;50.890;4.722;2023-04-09T05:49:47;38.8;;;15.6;;
6561;SDS011;3314;50.890;4.722;2023-04-09T05:51:46;40.5;;;16.3;;
6561;SDS011;3314;50.890;4.722;2023-04-09T05:53:46;39.3;;;16.0;;
6561;SDS011;3314;50.890;4.722;2023-04-09T05:55:46;38.2;;;15.0;;
6561;SDS011;3314;50.890;4.722;2023-04-09T05:57:45;39.2;;;15.5;;
6561;SDS011;3314;50.890;4.722;2023-04-09T05:59:45;34.2;;;14.6;;
6561;SDS011;3314;50.890;4.722;2023-04-09T06:01:45;41.4;;;17.6;;
6561;SDS011;3314;50.890;4.722;2023-04-09T06:03:44;40.7;;;16.6;;
6561;SDS011;3314;50.890;4.722;2023-04-09T06:05:44;35.8;;;14.9;;
6561;SDS011;3314;50.890;4.722;2023-04-09T06:07:49;44.2;;;17.3;;
6561;SDS011;3314;50.890;4.722;2023-04-09T06:09:37;45.2;;;17.2;;
6561;SDS011;3314;50.890;4.722;2023-04-09T06:11:37;42.4;;;16.8;;
6561;SDS011;3314;50.890;4.722;2023-04-09T06:13:37;39.8;;;16.8;;
6561;SDS011;3314;50.890;4.722;2023-04-09T06:15:37;41.6;;;18.1;;
6561;SDS011;3314;50.890;4.722;2023-04-09T06:17:37;39.3;;;17.3;;
6561;SDS011;3314;50.890;4.722;2023-04-09T06:19:37;41.6;;;17.9;;
6561;SDS011;3314;50.890;4.722;2023-04-09T06:21:36;46.8;;;19.1;;
6561;SDS011;3314;50.890;4.722;2023-04-09T06:23:36;44.5;;;19.1;;
6561;SDS011;3314;50.890;4.722;2023-04-09T06:25:36;43.9;;;19.3;;
6561;SDS011;3314;50.890;4.722;2023-04-09T06:27:35;46.5;;;19.5;;
6561;SDS011;3314;50.890;4.722;2023-04-09T06:29:35;44.7;;;20.7;;
6561;SDS011;3314;50.890;4.722;2023-04-09T06:31:35;50.8;;;21.8;;
6561;SDS011;3314;50.890;4.722;2023-04-09T06:33:34;54.1;;;21.8;;
6561;SDS011;3314;50.890;4.722;2023-04-09T06:35:34;52.6;;;22.5;;
6561;SDS011;3314;50.890;4.722;2023-04-09T06:37:34;56.5;;;23.5;;
6561;SDS011;3314;50.890;4.722;2023-04-09T06:39:33;57.8;;;24.5;;
6561;SDS011;3314;50.890;4.722;2023-04-09T06:41:33;57.0;;;23.6;;
6561;SDS011;3314;50.890;4.722;2023-04-09T06:43:33;51.9;;;21.9;;
6561;SDS011;3314;50.890;4.722;2023-04-09T06:45:33;56.2;;;24.3;;
6561;SDS011;3314;50.890;4.722;2023-04-09T06:47:32;57.3;;;24.1;;
6561;SDS011;3314;50.890;4.722;2023-04-09T06:49:32;59.2;;;23.4;;
6561;SDS011;3314;50.890;4.722;2023-04-09T06:51:32;55.9;;;23.8;;
6561;SDS011;3314;50.890;4.722;2023-04-09T06:53:31;63.2;;;25.2;;
6561;SDS011;3314;50.890;4.722;2023-04-09T06:55:31;52.9;;;23.6;;
6561;SDS011;3314;50.890;4.722;2023-04-09T06:57:31;55.1;;;22.9;;
6561;SDS011;3314;50.890;4.722;2023-04-09T06:59:31;53.5;;;24.3;;
6561;SDS011;3314;50.890;4.722;2023-04-09T07:01:31;54.9;;;23.0;;
6561;SDS011;3314;50.890;4.722;2023-04-09T07:03:31;53.5;;;22.2;;
6561;SDS011;3314;50.890;4.722;2023-04-09T07:05:31;52.5;;;22.5;;
6561;SDS011;3314;50.890;4.722;2023-04-09T07:07:31;49.7;;;20.6;;
6561;SDS011;3314;50.890;4.722;2023-04-09T07:09:31;48.4;;;22.7;;
6561;SDS011;3314;50.890;4.722;2023-04-09T07:11:30;54.9;;;24.4;;
6561;SDS011;3314;50.890;4.722;2023-04-09T07:13:30;52.7;;;21.7;;
6561;SDS011;3314;50.890;4.722;2023-04-09T07:15:30;52.2;;;22.3;;
6561;SDS011;3314;50.890;4.722;2023-04-09T07:17:30;48.4;;;20.8;;
6561;SDS011;3314;50.890;4.722;2023-04-09T07:19:30;54.5;;;21.4;;
6561;SDS011;3314;50.890;4.722;2023-04-09T07:21:29;55.5;;;21.7;;
6561;SDS011;3314;50.890;4.722;2023-04-09T07:23:30;49.9;;;21.9;;
6561;SDS011;3314;50.890;4.722;2023-04-09T07:25:20;50.6;;;21.6;;
6561;SDS011;3314;50.890;4.722;2023-04-09T07:27:20;51.6;;;22.1;;
6561;SDS011;3314;50.890;4.722;2023-04-09T07:29:21;51.0;;;21.3;;
6561;SDS011;3314;50.890;4.722;2023-04-09T07:31:21;50.2;;;21.7;;
6561;SDS011;3314;50.890;4.722;2023-04-09T07:33:21;52.3;;;23.3;;
6561;SDS011;3314;50.890;4.722;2023-04-09T07:35:21;54.2;;;23.0;;
6561;SDS011;3314;50.890;4.722;2023-04-09T07:37:20;55.4;;;23.7;;
6561;SDS011;3314;50.890;4.722;2023-04-09T07:39:20;47.7;;;21.4;;
6561;SDS011;3314;50.890;4.722;2023-04-09T07:41:20;55.1;;;22.9;;
6561;SDS011;3314;50.890;4.722;2023-04-09T07:43:20;53.9;;;22.0;;
6561;SDS011;3314;50.890;4.722;2023-04-09T07:45:19;51.4;;;21.7;;
6561;SDS011;3314;50.890;4.722;2023-04-09T07:47:20;53.8;;;20.9;;
6561;SDS011;3314;50.890;4.722;2023-04-09T07:49:21;51.0;;;21.4;;
6561;SDS011;3314;50.890;4.722;2023-04-09T07:51:21;46.8;;;20.3;;
6561;SDS011;3314;50.890;4.722;2023-04-09T07:53:21;50.2;;;21.4;;
6561;SDS011;3314;50.890;4.722;2023-04-09T07:55:20;54.9;;;22.1;;
6561;SDS011;3314;50.890;4.722;2023-04-09T07:57:20;52.8;;;21.9;;
6561;SDS011;3314;50.890;4.722;2023-04-09T07:59:20;53.4;;;21.1;;
6561;SDS011;3314;50.890;4.722;2023-04-09T08:01:23;48.0;;;20.9;;
6561;SDS011;3314;50.890;4.722;2023-04-09T08:03:13;49.1;;;20.7;;
6561;SDS011;3314;50.890;4.722;2023-04-09T08:05:13;44.6;;;20.7;;
6561;SDS011;3314;50.890;4.722;2023-04-09T08:07:12;50.6;;;21.8;;
6561;SDS011;3314;50.890;4.722;2023-04-09T08:09:12;46.1;;;20.5;;
6561;SDS011;3314;50.890;4.722;2023-04-09T08:11:12;45.4;;;19.3;;
6561;SDS011;3314;50.890;4.722;2023-04-09T08:13:11;49.4;;;21.8;;
6561;SDS011;3314;50.890;4.722;2023-04-09T08:15:11;52.8;;;20.5;;
6561;SDS011;3314;50.890;4.722;2023-04-09T08:17:11;45.6;;;19.6;;
6561;SDS011;3314;50.890;4.722;2023-04-09T08:19:10;46.8;;;19.6;;
6561;SDS011;3314;50.890;4.722;2023-04-09T08:21:10;47.2;;;21.0;;
6561;SDS011;3314;50.890;4.722;2023-04-09T08:23:10;45.6;;;19.7;;
6561;SDS011;3314;50.890;4.722;2023-04-09T08:25:10;42.9;;;18.2;;
6561;SDS011;3314;50.890;4.722;2023-04-09T08:27:10;43.9;;;18.5;;
6561;SDS011;3314;50.890;4.722;2023-04-09T08:29:10;45.2;;;18.9;;
6561;SDS011;3314;50.890;4.722;2023-04-09T08:31:10;48.4;;;19.7;;
6561;SDS011;3314;50.890;4.722;2023-04-09T08:33:09;46.5;;;18.0;;
6561;SDS011;3314;50.890;4.722;2023-04-09T08:35:09;46.6;;;18.5;;
6561;SDS011;3314;50.890;4.722;2023-04-09T08:37:09;40.1;;;18.3;;
6561;SDS011;3314;50.890;4.722;2023-04-09T08:39:08;39.9;;;16.3;;
6561;SDS011;3314;50.890;4.722;2023-04-09T08:41:14;40.9;;;17.0;;
6561;SDS011;3314;50.890;4.722;2023-04-09T08:43:15;40.5;;;16.9;;
6561;SDS011;3314;50.890;4.722;2023-04-09T08:45:07;40.1;;;16.2;;
6561;SDS011;3314;50.890;4.722;2023-04-09T08:47:09;41.6;;;17.0;;
6561;SDS011;3314;50.890;4.722;2023-04-09T08:49:10;42.8;;;17.4;;
6561;SDS011;3314;50.890;4.722;2023-04-09T08:51:12;42.1;;;17.0;;
6561;SDS011;3314;50.890;4.722;2023-04-09T08:53:12;38.2;;;16.2;;
6561;SDS011;3314;50.890;4.722;2023-04-09T08:55:11;39.1;;;16.5;;
6561;SDS011;3314;50.890;4.722;2023-04-09T08:57:11;44.8;;;16.8;;
6561;SDS011;3314;50.890;4.722;2023-04-09T08:59:13;39.7;;;15.7;;
6561;SDS011;3314;50.890;4.722;2023-04-09T09:01:20;39.1;;;17.3;;
6561;SDS011;3314;50.890;4.722;2023-04-09T09:03:09;36.9;;;17.1;;
6561;SDS011;3314;50.890;4.722;2023-04-09T09:05:09;36.7;;;15.8;;
6561;SDS011;3314;50.890;4.722;2023-04-09T09:07:09;35.4;;;15.3;;
6561;SDS011;3314;50.890;4.722;2023-04-09T09:09:09;40.2;;;16.6;;
6561;SDS011;3314;50.890;4.722;2023-04-09T09:11:09;38.8;;;16.7;;
6561;SDS011;3314;50.890;4.722;2023-04-09T09:13:16;35.6;;;16.0;;
6561;SDS011;3314;50.890;4.722;2023-04-09T09:15:05;34.4;;;15.3;;
6561;SDS011;3314;50.890;4.722;2023-04-09T09:17:10;38.0;;;16.1;;
6561;SDS011;3314;50.890;4.722;2023-04-09T09:19:27;35.6;;;16.0;;
6561;SDS011;3314;50.890;4.722;2023-04-09T09:21:08;36.5;;;16.3;;
6561;SDS011;3314;50.890;4.722;2023-04-09T09:23:09;36.6;;;15.8;;
6561;SDS011;3314;50.890;4.722;2023-04-09T09:25:08;33.9;;;16.7;;
6561;SDS011;3314;50.890;4.722;2023-04-09T09:27:00;34.5;;;15.2;;
6561;SDS011;3314;50.890;4.722;2023-04-09T09:29:00;38.7;;;16.7;;
6561;SDS011;3314;50.890;4.722;2023-04-09T09:31:06;38.4;;;16.8;;
6561;SDS011;3314;50.890;4.722;2023-04-09T09:33:07;41.9;;;16.3;;
6561;SDS011;3314;50.890;4.722;2023-04-09T09:35:07;35.6;;;15.0;;
6561;SDS011;3314;50.890;4.722;2023-04-09T09:37:11;41.8;;;17.0;;
6561;SDS011;3314;50.890;4.722;2023-04-09T09:39:02;36.0;;;16.3;;
6561;SDS011;3314;50.890;4.722;2023-04-09T09:41:15;40.3;;;16.2;;
6561;SDS011;3314;50.890;4.722;2023-04-09T09:43:02;39.5;;;15.6;;
6561;SDS011;3314;50.890;4.722;2023-04-09T09:45:03;36.8;;;16.0;;
6561;SDS011;3314;50.890;4.722;2023-04-09T09:47:03;35.8;;;15.9;;
6561;SDS011;3314;50.890;4.722;2023-04-09T09:49:03;34.7;;;15.1;;
6561;SDS011;3314;50.890;4.722;2023-04-09T09:51:05;41.1;;;15.9;;
6561;SDS011;3314;50.890;4.722;2023-04-09T09:52:59;37.3;;;15.8;;
6561;SDS011;3314;50.890;4.722;2023-04-09T09:54:59;35.3;;;15.7;;
6561;SDS011;3314;50.890;4.722;2023-04-09T09:57:02;35.8;;;15.3;;
6561;SDS011;3314;50.890;4.722;2023-04-09T09:59:05;34.8;;;14.3;;
6561;SDS011;3314;50.890;4.722;2023-04-09T10:01:07;31.5;;;14.6;;
6561;SDS011;3314;50.890;4.722;2023-04-09T10:02:56;34.0;;;15.0;;
6561;SDS011;3314;50.890;4.722;2023-04-09T10:04:59;35.5;;;15.9;;
6561;SDS011;3314;50.890;4.722;2023-04-09T10:06:59;39.0;;;15.9;;
6561;SDS011;3314;50.890;4.722;2023-04-09T10:09:02;35.6;;;15.4;;
6561;SDS011;3314;50.890;4.722;2023-04-09T10:11:03;37.9;;;15.4;;
6561;SDS011;3314;50.890;4.722;2023-04-09T10:13:04;31.5;;;13.8;;
6561;SDS011;3314;50.890;4.722;2023-04-09T10:14:54;34.5;;;14.3;;
6561;SDS011;3314;50.890;4.722;2023-04-09T10:16:53;33.2;;;14.5;;
6561;SDS011;3314;50.890;4.722;2023-04-09T10:18:54;34.2;;;14.6;;
6561;SDS011;3314;50.890;4.722;2023-04-09T10:20:57;34.9;;;14.0;;
6561;SDS011;3314;50.890;4.722;2023-04-09T10:22:57;37.1;;;16.0;;
6561;SDS011;3314;50.890;4.722;2023-04-09T10:24:59;34.3;;;15.9;;
6561;SDS011;3314;50.890;4.722;2023-04-09T10:27:08;32.7;;;14.4;;
6561;SDS011;3314;50.890;4.722;2023-04-09T10:29:02;32.9;;;14.8;;
6561;SDS011;3314;50.890;4.722;2023-04-09T10:30:52;32.7;;;14.0;;
6561;SDS011;3314;50.890;4.722;2023-04-09T10:32:52;32.7;;;14.7;;
6561;SDS011;3314;50.890;4.722;2023-04-09T10:34:54;31.2;;;13.8;;
6561;SDS011;3314;50.890;4.722;2023-04-09T10:36:55;31.8;;;14.4;;
6561;SDS011;3314;50.890;4.722;2023-04-09T10:38:55;33.1;;;14.4;;
6561;SDS011;3314;50.890;4.722;2023-04-09T10:40:55;34.3;;;15.0;;
6561;SDS011;3314;50.890;4.722;2023-04-09T10:42:55;35.4;;;14.3;;
6561;SDS011;3314;50.890;4.722;2023-04-09T10:45:10;35.5;;;15.5;;
6561;SDS011;3314;50.890;4.722;2023-04-09T10:46:58;33.6;;;14.1;;
6561;SDS011;3314;50.890;4.722;2023-04-09T10:49:15;31.2;;;13.1;;
6561;SDS011;3314;50.890;4.722;2023-04-09T10:50:51;35.4;;;14.0;;
6561;SDS011;3314;50.890;4.722;2023-04-09T10:52:51;28.3;;;13.0;;
6561;SDS011;3314;50.890;4.722;2023-04-09T10:54:51;31.5;;;14.2;;
6561;SDS011;3314;50.890;4.722;2023-04-09T10:57:22;32.5;;;13.9;;
6561;SDS011;3314;50.890;4.722;2023-04-09T10:58:57;33.5;;;13.2;;
6561;SDS011;3314;50.890;4.722;2023-04-09T11:00:57;32.2;;;14.7;;
6561;SDS011;3314;50.890;4.722;2023-04-09T11:02:57;29.8;;;12.6;;
6561;SDS011;3314;50.890;4.722;2023-04-09T11:04:50;30.2;;;12.8;;
6561;SDS011;3314;50.890;4.722;2023-04-09T11:06:57;31.3;;;13.3;;
6561;SDS011;3314;50.890;4.722;2023-04-09T11:09:00;29.7;;;13.1;;
6561;SDS011;3314;50.890;4.722;2023-04-09T11:10:47;29.0;;;12.3;;
6561;SDS011;3314;50.890;4.722;2023-04-09T11:12:47;29.4;;;13.4;;
6561;SDS011;3314;50.890;4.722;2023-04-09T11:14:47;30.6;;;13.2;;
6561;SDS011;3314;50.890;4.722;2023-04-09T11:16:46;29.3;;;12.7;;
6561;SDS011;3314;50.890;4.722;2023-04-09T11:18:46;28.5;;;12.2;;
6561;SDS011;3314;50.890;4.722;2023-04-09T11:20:46;27.2;;;12.3;;
6561;SDS011;3314;50.890;4.722;2023-04-09T11:22:46;33.3;;;12.7;;
6561;SDS011;3314;50.890;4.722;2023-04-09T11:24:46;27.8;;;11.6;;
6561;SDS011;3314;50.890;4.722;2023-04-09T11:26:48;27.0;;;12.5;;
6561;SDS011;3314;50.890;4.722;2023-04-09T11:28:47;27.4;;;13.2;;
6561;SDS011;3314;50.890;4.722;2023-04-09T11:30:49;34.6;;;13.3;;
6561;SDS011;3314;50.890;4.722;2023-04-09T11:32:49;31.2;;;12.6;;
6561;SDS011;3314;50.890;4.722;2023-04-09T11:34:51;26.8;;;11.1;;
6561;SDS011;3314;50.890;4.722;2023-04-09T11:36:51;25.5;;;12.3;;
6561;SDS011;3314;50.890;4.722;2023-04-09T11:38:50;27.9;;;12.2;;
6561;SDS011;3314;50.890;4.722;2023-04-09T11:40:55;28.9;;;12.7;;
6561;SDS011;3314;50.890;4.722;2023-04-09T11:42:44;24.5;;;11.8;;
6561;SDS011;3314;50.890;4.722;2023-04-09T11:44:44;27.4;;;11.4;;
6561;SDS011;3314;50.890;4.722;2023-04-09T11:46:43;27.0;;;11.2;;
6561;SDS011;3314;50.890;4.722;2023-04-09T11:48:43;27.4;;;12.3;;
6561;SDS011;3314;50.890;4.722;2023-04-09T11:50:43;25.5;;;11.1;;
6561;SDS011;3314;50.890;4.722;2023-04-09T11:52:43;21.2;;;9.4;;
6561;SDS011;3314;50.890;4.722;2023-04-09T11:54:47;23.2;;;10.3;;
6561;SDS011;3314;50.890;4.722;2023-04-09T11:56:48;24.0;;;9.4;;
6561;SDS011;3314;50.890;4.722;2023-04-09T11:58:48;24.8;;;10.1;;
6561;SDS011;3314;50.890;4.722;2023-04-09T12:00:48;24.3;;;10.2;;
6561;SDS011;3314;50.890;4.722;2023-04-09T12:02:57;26.1;;;11.1;;
6561;SDS011;3314;50.890;4.722;2023-04-09T12:04:48;26.3;;;10.5;;
6561;SDS011;3314;50.890;4.722;2023-04-09T12:06:48;19.6;;;8.7;;
6561;SDS011;3314;50.890;4.722;2023-04-09T12:08:51;20.7;;;8.3;;
6561;SDS011;3314;50.890;4.722;2023-04-09T12:10:41;24.4;;;9.9;;
6561;SDS011;3314;50.890;4.722;2023-04-09T12:12:41;20.2;;;8.9;;
6561;SDS011;3314;50.890;4.722;2023-04-09T12:14:44;21.5;;;9.2;;
6561;SDS011;3314;50.890;4.722;2023-04-09T12:16:44;20.9;;;8.9;;
6561;SDS011;3314;50.890;4.722;2023-04-09T12:18:43;21.0;;;9.2;;
6561;SDS011;3314;50.890;4.722;2023-04-09T12:20:46;22.3;;;9.4;;
6561;SDS011;3314;50.890;4.722;2023-04-09T12:22:46;19.7;;;8.4;;